sensor_id;sensor_type;location;lat;lon;timestamp;temperature;humidity
32698;DHT22;19087;51.062;3.754;2023-07-09T00:01:04;24.50;99.90
32698;DHT22;19087;51.062;3.754;2023-07-09T00:03:30;24.50;99.90
32698;DHT22;19087;51.062;3.754;2023-07-09T00:05:56;24.50;99.90
32698;DHT22;19087;51.062;3.754;2023-07-09T00:10:47;24.40;99.90
32698;DHT22;19087;51.062;3.754;2023-07-09T00:13:13;24.20;99.90
32698;DHT22;19087;51.062;3.754;2023-07-09T00:15:38;24.00;99.90
32698;DHT22;19087;51.062;3.754;2023-07-09T00:18:04;23.90;99.90
32698;DHT22;19087;51.062;3.754;2023-07-09T00:20:29;23.80;99.90
32698;DHT22;19087;51.062;3.754;2023-07-09T00:22:55;23.90;99.90
32698;DHT22;19087;51.062;3.754;2023-07-09T00:25:20;23.90;99.90
32698;DHT22;19087;51.062;3.754;2023-07-09T00:27:46;24.00;99.90
32698;DHT22;19087;51.062;3.754;2023-07-09T00:30:15;24.00;99.90
32698;DHT22;19087;51.062;3.754;2023-07-09T00:32:41;24.10;99.90
32698;DHT22;19087;51.062;3.754;2023-07-09T00:35:08;24.10;99.90
32698;DHT22;19087;51.062;3.754;2023-07-09T00:37:35;24.10;99.90
32698;DHT22;19087;51.062;3.754;2023-07-09T00:40:00;24.10;99.90
32698;DHT22;19087;51.062;3.754;2023-07-09T00:42:26;24.00;99.90
32698;DHT22;19087;51.062;3.754;2023-07-09T00:44:52;23.90;99.90
32698;DHT22;19087;51.062;3.754;2023-07-09T00:49:44;23.80;99.90
32698;DHT22;19087;51.062;3.754;2023-07-09T00:52:20;23.80;99.90
32698;DHT22;19087;51.062;3.754;2023-07-09T00:54:47;23.80;99.90
32698;DHT22;19087;51.062;3.754;2023-07-09T00:57:16;23.80;99.90
32698;DHT22;19087;51.062;3.754;2023-07-09T00:59:44;23.80;99.90
32698;DHT22;19087;51.062;3.754;2023-07-09T01:02:10;23.80;99.90
32698;DHT22;19087;51.062;3.754;2023-07-09T01:04:36;23.80;99.90
32698;DHT22;19087;51.062;3.754;2023-07-09T01:07:01;23.90;99.90
32698;DHT22;19087;51.062;3.754;2023-07-09T01:09:27;23.80;99.90
32698;DHT22;19087;51.062;3.754;2023-07-09T01:11:53;23.80;99.90
32698;DHT22;19087;51.062;3.754;2023-07-09T01:14:21;23.80;99.90
32698;DHT22;19087;51.062;3.754;2023-07-09T01:16:52;23.70;99.90
32698;DHT22;19087;51.062;3.754;2023-07-09T01:19:28;23.70;99.90
32698;DHT22;19087;51.062;3.754;2023-07-09T01:21:57;23.70;99.90
32698;DHT22;19087;51.062;3.754;2023-07-09T01:25:01;23.60;99.90
32698;DHT22;19087;51.062;3.754;2023-07-09T01:27:23;23.60;99.90
32698;DHT22;19087;51.062;3.754;2023-07-09T01:29:49;23.60;99.90
32698;DHT22;19087;51.062;3.754;2023-07-09T01:32:15;23.50;99.90
32698;DHT22;19087;51.062;3.754;2023-07-09T01:34:44;23.50;99.90
32698;DHT22;19087;51.062;3.754;2023-07-09T01:37:17;23.40;99.90
32698;DHT22;19087;51.062;3.754;2023-07-09T01:39:43;23.30;99.90
32698;DHT22;19087;51.062;3.754;2023-07-09T01:42:09;23.20;99.90
32698;DHT22;19087;51.062;3.754;2023-07-09T01:44:35;23.20;99.90
32698;DHT22;19087;51.062;3.754;2023-07-09T01:47:01;23.20;99.90
32698;DHT22;19087;51.062;3.754;2023-07-09T01:49:29;23.20;99.90
32698;DHT22;19087;51.062;3.754;2023-07-09T01:51:55;23.20;99.90
32698;DHT22;19087;51.062;3.754;2023-07-09T01:54:20;23.10;99.90
32698;DHT22;19087;51.062;3.754;2023-07-09T01:56:49;22.90;99.90
32698;DHT22;19087;51.062;3.754;2023-07-09T01:59:15;22.80;99.90
32698;DHT22;19087;51.062;3.754;2023-07-09T02:01:40;22.80;99.90
32698;DHT22;19087;51.062;3.754;2023-07-09T02:04:06;22.90;99.90
32698;DHT22;19087;51.062;3.754;2023-07-09T02:06:32;22.90;99.90
32698;DHT22;19087;51.062;3.754;2023-07-09T02:08:58;22.90;99.90
32698;DHT22;19087;51.062;3.754;2023-07-09T02:11:24;22.80;99.90
32698;DHT22;19087;51.062;3.754;2023-07-09T02:13:50;22.80;99.90
32698;DHT22;19087;51.062;3.754;2023-07-09T02:16:15;22.90;99.90
32698;DHT22;19087;51.062;3.754;2023-07-09T02:18:41;22.90;99.90
32698;DHT22;19087;51.062;3.754;2023-07-09T02:21:06;22.90;99.90
32698;DHT22;19087;51.062;3.754;2023-07-09T02:23:32;22.90;99.90
32698;DHT22;19087;51.062;3.754;2023-07-09T02:25:57;23.00;99.90
32698;DHT22;19087;51.062;3.754;2023-07-09T02:28:23;23.00;99.90
32698;DHT22;19087;51.062;3.754;2023-07-09T02:30:48;23.10;99.90
32698;DHT22;19087;51.062;3.754;2023-07-09T02:33:14;23.00;99.90
32698;DHT22;19087;51.062;3.754;2023-07-09T02:35:40;23.10;99.90
32698;DHT22;19087;51.062;3.754;2023-07-09T02:38:05;23.00;99.90
32698;DHT22;19087;51.062;3.754;2023-07-09T02:40:31;23.00;99.90
32698;DHT22;19087;51.062;3.754;2023-07-09T02:42:56;23.00;99.90
32698;DHT22;19087;51.062;3.754;2023-07-09T02:45:22;23.10;99.90
32698;DHT22;19087;51.062;3.754;2023-07-09T02:47:47;23.00;99.90
32698;DHT22;19087;51.062;3.754;2023-07-09T02:50:13;23.00;99.90
32698;DHT22;19087;51.062;3.754;2023-07-09T02:52:40;23.00;99.90
32698;DHT22;19087;51.062;3.754;2023-07-09T02:55:07;23.00;99.90
32698;DHT22;19087;51.062;3.754;2023-07-09T02:57:33;22.90;99.90
32698;DHT22;19087;51.062;3.754;2023-07-09T02:59:58;22.80;99.90
32698;DHT22;19087;51.062;3.754;2023-07-09T03:02:25;22.80;99.90
32698;DHT22;19087;51.062;3.754;2023-07-09T03:04:51;22.70;99.90
32698;DHT22;19087;51.062;3.754;2023-07-09T03:07:17;22.70;99.90
32698;DHT22;19087;51.062;3.754;2023-07-09T03:09:42;22.60;99.90
32698;DHT22;19087;51.062;3.754;2023-07-09T03:12:08;22.60;99.90
32698;DHT22;19087;51.062;3.754;2023-07-09T03:14:35;22.50;99.90
32698;DHT22;19087;51.062;3.754;2023-07-09T03:17:00;22.50;99.90
32698;DHT22;19087;51.062;3.754;2023-07-09T03:19:26;22.30;99.90
32698;DHT22;19087;51.062;3.754;2023-07-09T03:21:51;22.30;99.90
32698;DHT22;19087;51.062;3.754;2023-07-09T03:24:17;22.30;99.90
32698;DHT22;19087;51.062;3.754;2023-07-09T03:26:44;22.30;99.90
32698;DHT22;19087;51.062;3.754;2023-07-09T03:29:10;22.40;99.90
32698;DHT22;19087;51.062;3.754;2023-07-09T03:31:36;22.40;99.90
32698;DHT22;19087;51.062;3.754;2023-07-09T03:34:01;22.30;99.90
32698;DHT22;19087;51.062;3.754;2023-07-09T03:36:27;22.30;99.90
32698;DHT22;19087;51.062;3.754;2023-07-09T03:38:53;22.30;99.90
32698;DHT22;19087;51.062;3.754;2023-07-09T03:41:18;22.30;99.90
32698;DHT22;19087;51.062;3.754;2023-07-09T03:43:45;22.30;99.90
32698;DHT22;19087;51.062;3.754;2023-07-09T03:46:10;22.20;99.90
32698;DHT22;19087;51.062;3.754;2023-07-09T03:48:36;22.20;99.90
32698;DHT22;19087;51.062;3.754;2023-07-09T03:51:02;22.20;99.90
32698;DHT22;19087;51.062;3.754;2023-07-09T03:53:27;22.10;99.90
32698;DHT22;19087;51.062;3.754;2023-07-09T03:55:54;22.10;99.90
32698;DHT22;19087;51.062;3.754;2023-07-09T03:58:20;22.10;99.90
32698;DHT22;19087;51.062;3.754;2023-07-09T04:00:46;22.10;99.90
32698;DHT22;19087;51.062;3.754;2023-07-09T04:03:12;22.20;99.90
32698;DHT22;19087;51.062;3.754;2023-07-09T04:05:38;22.10;99.90
32698;DHT22;19087;51.062;3.754;2023-07-09T04:08:04;22.20;99.90
32698;DHT22;19087;51.062;3.754;2023-07-09T04:10:30;22.20;99.90
32698;DHT22;19087;51.062;3.754;2023-07-09T04:12:56;22.20;99.90
32698;DHT22;19087;51.062;3.754;2023-07-09T04:15:21;22.20;99.90
32698;DHT22;19087;51.062;3.754;2023-07-09T04:17:47;22.20;99.90
32698;DHT22;19087;51.062;3.754;2023-07-09T04:20:12;22.30;99.90
32698;DHT22;19087;51.062;3.754;2023-07-09T04:22:39;22.30;99.90
32698;DHT22;19087;51.062;3.754;2023-07-09T04:25:06;22.30;99.90
32698;DHT22;19087;51.062;3.754;2023-07-09T04:27:32;22.40;99.90
32698;DHT22;19087;51.062;3.754;2023-07-09T04:29:57;22.50;99.90
32698;DHT22;19087;51.062;3.754;2023-07-09T04:32:23;22.50;99.90
32698;DHT22;19087;51.062;3.754;2023-07-09T04:34:48;22.60;99.90
32698;DHT22;19087;51.062;3.754;2023-07-09T04:37:14;22.60;99.90
32698;DHT22;19087;51.062;3.754;2023-07-09T04:39:43;22.60;99.90
32698;DHT22;19087;51.062;3.754;2023-07-09T04:42:10;22.70;99.90
32698;DHT22;19087;51.062;3.754;2023-07-09T04:44:36;22.70;99.90
32698;DHT22;19087;51.062;3.754;2023-07-09T04:47:02;22.80;99.90
32698;DHT22;19087;51.062;3.754;2023-07-09T04:49:27;22.90;99.90
32698;DHT22;19087;51.062;3.754;2023-07-09T04:51:54;22.90;99.90
32698;DHT22;19087;51.062;3.754;2023-07-09T04:54:22;22.90;99.90
32698;DHT22;19087;51.062;3.754;2023-07-09T04:56:48;23.10;99.90
32698;DHT22;19087;51.062;3.754;2023-07-09T04:59:14;23.20;99.90
32698;DHT22;19087;51.062;3.754;2023-07-09T05:01:39;23.30;99.90
32698;DHT22;19087;51.062;3.754;2023-07-09T05:04:05;23.40;99.90
32698;DHT22;19087;51.062;3.754;2023-07-09T05:06:30;23.50;99.90
32698;DHT22;19087;51.062;3.754;2023-07-09T05:08:56;23.50;99.90
32698;DHT22;19087;51.062;3.754;2023-07-09T05:11:21;23.60;99.90
32698;DHT22;19087;51.062;3.754;2023-07-09T05:13:49;23.70;99.90
32698;DHT22;19087;51.062;3.754;2023-07-09T05:16:15;23.80;99.90
32698;DHT22;19087;51.062;3.754;2023-07-09T05:18:40;24.00;99.90
32698;DHT22;19087;51.062;3.754;2023-07-09T05:21:06;24.00;99.90
32698;DHT22;19087;51.062;3.754;2023-07-09T05:23:31;24.10;99.90
32698;DHT22;19087;51.062;3.754;2023-07-09T05:25:57;24.20;99.90
32698;DHT22;19087;51.062;3.754;2023-07-09T05:28:25;24.30;99.90
32698;DHT22;19087;51.062;3.754;2023-07-09T05:30:51;24.40;99.90
32698;DHT22;19087;51.062;3.754;2023-07-09T05:33:17;24.60;99.90
32698;DHT22;19087;51.062;3.754;2023-07-09T05:35:44;24.70;99.90
32698;DHT22;19087;51.062;3.754;2023-07-09T05:38:09;24.70;99.90
32698;DHT22;19087;51.062;3.754;2023-07-09T05:40:35;24.80;99.80
32698;DHT22;19087;51.062;3.754;2023-07-09T05:43:00;25.00;99.50
32698;DHT22;19087;51.062;3.754;2023-07-09T05:45:26;25.20;99.10
32698;DHT22;19087;51.062;3.754;2023-07-09T05:47:52;25.30;98.90
32698;DHT22;19087;51.062;3.754;2023-07-09T05:50:17;25.40;98.70
32698;DHT22;19087;51.062;3.754;2023-07-09T05:52:43;25.50;98.50
32698;DHT22;19087;51.062;3.754;2023-07-09T05:55:09;25.60;98.40
32698;DHT22;19087;51.062;3.754;2023-07-09T05:57:34;25.70;98.10
32698;DHT22;19087;51.062;3.754;2023-07-09T06:00:00;25.70;97.90
32698;DHT22;19087;51.062;3.754;2023-07-09T06:02:25;25.80;97.80
32698;DHT22;19087;51.062;3.754;2023-07-09T06:04:51;25.90;97.60
32698;DHT22;19087;51.062;3.754;2023-07-09T06:07:17;26.00;97.60
32698;DHT22;19087;51.062;3.754;2023-07-09T06:09:46;26.10;97.30
32698;DHT22;19087;51.062;3.754;2023-07-09T06:12:11;26.50;97.20
32698;DHT22;19087;51.062;3.754;2023-07-09T06:14:38;27.20;96.40
32698;DHT22;19087;51.062;3.754;2023-07-09T06:17:05;27.80;94.50
32698;DHT22;19087;51.062;3.754;2023-07-09T06:19:30;28.60;93.80
32698;DHT22;19087;51.062;3.754;2023-07-09T06:21:56;29.30;92.50
32698;DHT22;19087;51.062;3.754;2023-07-09T06:24:22;30.10;91.30
32698;DHT22;19087;51.062;3.754;2023-07-09T06:26:48;31.00;90.40
32698;DHT22;19087;51.062;3.754;2023-07-09T06:29:13;31.60;87.10
32698;DHT22;19087;51.062;3.754;2023-07-09T06:31:39;32.50;85.30
32698;DHT22;19087;51.062;3.754;2023-07-09T06:34:06;32.90;82.40
32698;DHT22;19087;51.062;3.754;2023-07-09T06:36:32;33.40;81.50
32698;DHT22;19087;51.062;3.754;2023-07-09T06:38:58;33.70;79.40
32698;DHT22;19087;51.062;3.754;2023-07-09T06:41:24;34.30;78.60
32698;DHT22;19087;51.062;3.754;2023-07-09T06:43:50;34.60;76.90
32698;DHT22;19087;51.062;3.754;2023-07-09T06:46:17;35.20;75.90
32698;DHT22;19087;51.062;3.754;2023-07-09T06:48:43;35.70;73.80
32698;DHT22;19087;51.062;3.754;2023-07-09T06:51:09;36.20;73.00
32698;DHT22;19087;51.062;3.754;2023-07-09T06:53:35;36.50;71.70
32698;DHT22;19087;51.062;3.754;2023-07-09T06:56:01;37.20;70.70
32698;DHT22;19087;51.062;3.754;2023-07-09T06:58:29;37.20;68.90
32698;DHT22;19087;51.062;3.754;2023-07-09T07:00:57;37.40;68.00
32698;DHT22;19087;51.062;3.754;2023-07-09T07:03:22;36.90;67.00
32698;DHT22;19087;51.062;3.754;2023-07-09T07:05:49;36.10;67.80
32698;DHT22;19087;51.062;3.754;2023-07-09T07:08:17;35.60;69.10
32698;DHT22;19087;51.062;3.754;2023-07-09T07:10:43;35.60;69.50
32698;DHT22;19087;51.062;3.754;2023-07-09T07:13:09;36.20;68.70
32698;DHT22;19087;51.062;3.754;2023-07-09T07:15:36;36.40;67.10
32698;DHT22;19087;51.062;3.754;2023-07-09T07:18:01;36.50;67.70
32698;DHT22;19087;51.062;3.754;2023-07-09T07:20:27;36.70;67.30
32698;DHT22;19087;51.062;3.754;2023-07-09T07:22:53;36.90;67.40
32698;DHT22;19087;51.062;3.754;2023-07-09T07:25:18;37.10;66.50
32698;DHT22;19087;51.062;3.754;2023-07-09T07:27:44;37.50;65.20
32698;DHT22;19087;51.062;3.754;2023-07-09T07:30:09;37.10;65.50
32698;DHT22;19087;51.062;3.754;2023-07-09T07:32:39;36.50;66.20
32698;DHT22;19087;51.062;3.754;2023-07-09T07:35:08;35.70;67.90
32698;DHT22;19087;51.062;3.754;2023-07-09T07:37:34;35.80;67.80
32698;DHT22;19087;51.062;3.754;2023-07-09T07:40:00;35.90;67.80
32698;DHT22;19087;51.062;3.754;2023-07-09T07:42:26;36.10;67.60
32698;DHT22;19087;51.062;3.754;2023-07-09T07:44:51;36.90;67.60
32698;DHT22;19087;51.062;3.754;2023-07-09T07:47:17;37.50;65.80
32698;DHT22;19087;51.062;3.754;2023-07-09T07:49:43;38.10;64.30
32698;DHT22;19087;51.062;3.754;2023-07-09T07:52:08;38.50;64.30
32698;DHT22;19087;51.062;3.754;2023-07-09T07:54:35;38.90;62.30
32698;DHT22;19087;51.062;3.754;2023-07-09T07:57:01;39.50;61.50
32698;DHT22;19087;51.062;3.754;2023-07-09T07:59:26;39.90;60.60
32698;DHT22;19087;51.062;3.754;2023-07-09T08:01:52;40.60;60.00
32698;DHT22;19087;51.062;3.754;2023-07-09T08:04:18;40.70;59.30
32698;DHT22;19087;51.062;3.754;2023-07-09T08:06:43;41.00;59.10
32698;DHT22;19087;51.062;3.754;2023-07-09T08:09:09;40.90;58.60
32698;DHT22;19087;51.062;3.754;2023-07-09T08:11:34;41.10;58.40
32698;DHT22;19087;51.062;3.754;2023-07-09T08:14:00;41.20;56.90
32698;DHT22;19087;51.062;3.754;2023-07-09T08:16:26;40.80;57.40
32698;DHT22;19087;51.062;3.754;2023-07-09T08:18:51;40.50;57.70
32698;DHT22;19087;51.062;3.754;2023-07-09T08:21:17;40.70;57.70
32698;DHT22;19087;51.062;3.754;2023-07-09T08:23:43;41.10;57.40
32698;DHT22;19087;51.062;3.754;2023-07-09T08:26:09;41.40;56.80
32698;DHT22;19087;51.062;3.754;2023-07-09T08:28:34;41.10;57.10
32698;DHT22;19087;51.062;3.754;2023-07-09T08:31:00;41.10;57.20
32698;DHT22;19087;51.062;3.754;2023-07-09T08:33:26;41.60;57.00
32698;DHT22;19087;51.062;3.754;2023-07-09T08:35:52;41.40;56.90
32698;DHT22;19087;51.062;3.754;2023-07-09T08:38:18;42.00;56.30
32698;DHT22;19087;51.062;3.754;2023-07-09T08:41:00;42.00;56.20
32698;DHT22;19087;51.062;3.754;2023-07-09T08:46:13;43.10;54.30
32698;DHT22;19087;51.062;3.754;2023-07-09T08:48:41;42.60;53.40
32698;DHT22;19087;51.062;3.754;2023-07-09T08:51:19;42.90;53.30
32698;DHT22;19087;51.062;3.754;2023-07-09T08:53:53;42.90;52.90
32698;DHT22;19087;51.062;3.754;2023-07-09T08:56:21;42.40;52.70
32698;DHT22;19087;51.062;3.754;2023-07-09T08:58:47;41.00;53.70
32698;DHT22;19087;51.062;3.754;2023-07-09T09:01:23;41.30;55.20
32698;DHT22;19087;51.062;3.754;2023-07-09T09:03:50;42.00;54.40
32698;DHT22;19087;51.062;3.754;2023-07-09T09:06:20;42.20;53.40
32698;DHT22;19087;51.062;3.754;2023-07-09T09:09:02;41.70;54.40
32698;DHT22;19087;51.062;3.754;2023-07-09T09:11:35;41.10;54.90
32698;DHT22;19087;51.062;3.754;2023-07-09T09:14:05;40.60;55.90
32698;DHT22;19087;51.062;3.754;2023-07-09T09:16:35;39.50;56.60
32698;DHT22;19087;51.062;3.754;2023-07-09T09:19:06;38.30;57.40
32698;DHT22;19087;51.062;3.754;2023-07-09T09:21:38;37.90;58.70
32698;DHT22;19087;51.062;3.754;2023-07-09T09:24:20;37.30;59.50
32698;DHT22;19087;51.062;3.754;2023-07-09T09:26:49;37.00;60.10
32698;DHT22;19087;51.062;3.754;2023-07-09T09:29:16;36.60;60.00
32698;DHT22;19087;51.062;3.754;2023-07-09T09:31:45;36.20;60.30
32698;DHT22;19087;51.062;3.754;2023-07-09T09:34:21;35.80;61.20
32698;DHT22;19087;51.062;3.754;2023-07-09T09:36:47;35.20;62.00
32698;DHT22;19087;51.062;3.754;2023-07-09T09:39:13;35.10;61.70
32698;DHT22;19087;51.062;3.754;2023-07-09T09:41:38;34.90;64.30
32698;DHT22;19087;51.062;3.754;2023-07-09T09:44:05;34.80;63.80
32698;DHT22;19087;51.062;3.754;2023-07-09T09:46:32;34.50;64.30
32698;DHT22;19087;51.062;3.754;2023-07-09T09:49:01;34.30;65.50
32698;DHT22;19087;51.062;3.754;2023-07-09T09:51:27;34.10;65.40
32698;DHT22;19087;51.062;3.754;2023-07-09T09:53:59;34.30;66.20
32698;DHT22;19087;51.062;3.754;2023-07-09T09:56:29;34.40;65.90
32698;DHT22;19087;51.062;3.754;2023-07-09T09:58:55;34.60;65.30
32698;DHT22;19087;51.062;3.754;2023-07-09T10:01:25;34.80;66.00
32698;DHT22;19087;51.062;3.754;2023-07-09T10:03:51;34.90;66.40
32698;DHT22;19087;51.062;3.754;2023-07-09T10:06:28;34.80;66.40
32698;DHT22;19087;51.062;3.754;2023-07-09T10:09:20;34.70;66.60
32698;DHT22;19087;51.062;3.754;2023-07-09T10:16:50;33.40;69.00
32698;DHT22;19087;51.062;3.754;2023-07-09T10:19:35;32.90;70.10
32698;DHT22;19087;51.062;3.754;2023-07-09T10:24:44;32.20;71.00
32698;DHT22;19087;51.062;3.754;2023-07-09T10:29:47;31.80;73.40
32698;DHT22;19087;51.062;3.754;2023-07-09T10:32:33;31.50;74.10
32698;DHT22;19087;51.062;3.754;2023-07-09T10:35:04;31.30;75.20
32698;DHT22;19087;51.062;3.754;2023-07-09T10:40:02;30.60;77.90
32698;DHT22;19087;51.062;3.754;2023-07-09T10:42:40;30.40;78.70
32698;DHT22;19087;51.062;3.754;2023-07-09T10:45:44;30.30;79.20
32698;DHT22;19087;51.062;3.754;2023-07-09T10:48:03;30.20;79.20
32698;DHT22;19087;51.062;3.754;2023-07-09T10:50:36;30.10;79.50
32698;DHT22;19087;51.062;3.754;2023-07-09T10:53:11;29.90;79.60
32698;DHT22;19087;51.062;3.754;2023-07-09T10:55:50;29.90;79.90
32698;DHT22;19087;51.062;3.754;2023-07-09T11:00:46;29.60;81.10
32698;DHT22;19087;51.062;3.754;2023-07-09T11:03:30;29.70;81.30
32698;DHT22;19087;51.062;3.754;2023-07-09T11:05:59;29.80;81.20
32698;DHT22;19087;51.062;3.754;2023-07-09T11:08:35;30.20;80.00
32698;DHT22;19087;51.062;3.754;2023-07-09T11:11:06;30.60;78.50
32698;DHT22;19087;51.062;3.754;2023-07-09T11:16:01;31.30;77.50
32698;DHT22;19087;51.062;3.754;2023-07-09T11:18:29;31.30;77.80
32698;DHT22;19087;51.062;3.754;2023-07-09T11:20:59;31.50;77.00
32698;DHT22;19087;51.062;3.754;2023-07-09T11:23:25;31.80;76.90
32698;DHT22;19087;51.062;3.754;2023-07-09T11:26:10;31.80;76.90
32698;DHT22;19087;51.062;3.754;2023-07-09T11:28:46;31.60;78.00
32698;DHT22;19087;51.062;3.754;2023-07-09T11:31:22;31.70;77.60
32698;DHT22;19087;51.062;3.754;2023-07-09T11:33:56;31.50;78.20
32698;DHT22;19087;51.062;3.754;2023-07-09T11:36:32;31.30;79.00
32698;DHT22;19087;51.062;3.754;2023-07-09T11:38:59;31.30;78.50
32698;DHT22;19087;51.062;3.754;2023-07-09T11:41:37;31.20;78.30
32698;DHT22;19087;51.062;3.754;2023-07-09T11:44:37;30.90;78.50
32698;DHT22;19087;51.062;3.754;2023-07-09T11:49:45;30.30;80.30
32698;DHT22;19087;51.062;3.754;2023-07-09T11:52:11;30.20;80.80
32698;DHT22;19087;51.062;3.754;2023-07-09T11:54:38;30.30;80.70
32698;DHT22;19087;51.062;3.754;2023-07-09T11:57:05;30.20;81.00
32698;DHT22;19087;51.062;3.754;2023-07-09T11:59:37;30.20;81.10
32698;DHT22;19087;51.062;3.754;2023-07-09T12:02:03;30.30;80.90
32698;DHT22;19087;51.062;3.754;2023-07-09T12:04:32;30.60;80.80
32698;DHT22;19087;51.062;3.754;2023-07-09T12:06:59;30.50;80.00
32698;DHT22;19087;51.062;3.754;2023-07-09T12:09:32;30.60;80.50
32698;DHT22;19087;51.062;3.754;2023-07-09T12:11:57;30.40;80.80
32698;DHT22;19087;51.062;3.754;2023-07-09T12:14:24;30.50;80.80
32698;DHT22;19087;51.062;3.754;2023-07-09T12:16:59;30.50;80.70
32698;DHT22;19087;51.062;3.754;2023-07-09T12:19:28;30.50;80.80
32698;DHT22;19087;51.062;3.754;2023-07-09T12:21:58;30.50;80.70
32698;DHT22;19087;51.062;3.754;2023-07-09T12:24:24;30.20;81.30
32698;DHT22;19087;51.062;3.754;2023-07-09T12:26:55;30.00;81.40
32698;DHT22;19087;51.062;3.754;2023-07-09T12:29:24;29.80;82.50
32698;DHT22;19087;51.062;3.754;2023-07-09T12:31:51;29.60;83.00
32698;DHT22;19087;51.062;3.754;2023-07-09T12:34:16;29.30;84.00
32698;DHT22;19087;51.062;3.754;2023-07-09T12:36:49;29.20;84.70
32698;DHT22;19087;51.062;3.754;2023-07-09T12:39:25;29.10;85.60
32698;DHT22;19087;51.062;3.754;2023-07-09T12:41:54;29.20;85.80
32698;DHT22;19087;51.062;3.754;2023-07-09T12:44:20;29.10;85.30
32698;DHT22;19087;51.062;3.754;2023-07-09T12:46:47;29.00;85.40
32698;DHT22;19087;51.062;3.754;2023-07-09T12:49:25;28.90;84.60
32698;DHT22;19087;51.062;3.754;2023-07-09T12:51:53;28.80;84.80
32698;DHT22;19087;51.062;3.754;2023-07-09T12:54:19;28.60;84.60
32698;DHT22;19087;51.062;3.754;2023-07-09T12:56:46;28.20;85.40
32698;DHT22;19087;51.062;3.754;2023-07-09T12:59:22;28.10;86.70
32698;DHT22;19087;51.062;3.754;2023-07-09T13:01:50;27.70;90.40
32698;DHT22;19087;51.062;3.754;2023-07-09T13:04:16;27.40;92.30
32698;DHT22;19087;51.062;3.754;2023-07-09T13:06:42;27.20;93.50
32698;DHT22;19087;51.062;3.754;2023-07-09T13:09:11;27.10;95.20
32698;DHT22;19087;51.062;3.754;2023-07-09T13:11:39;26.80;97.00
32698;DHT22;19087;51.062;3.754;2023-07-09T13:14:05;26.50;99.50
32698;DHT22;19087;51.062;3.754;2023-07-09T13:16:37;26.20;99.90
32698;DHT22;19087;51.062;3.754;2023-07-09T13:19:03;25.90;99.90
32698;DHT22;19087;51.062;3.754;2023-07-09T13:21:29;25.60;99.90
32698;DHT22;19087;51.062;3.754;2023-07-09T13:23:56;25.20;99.90
32698;DHT22;19087;51.062;3.754;2023-07-09T13:26:22;25.10;99.90
32698;DHT22;19087;51.062;3.754;2023-07-09T13:28:48;24.90;99.90
32698;DHT22;19087;51.062;3.754;2023-07-09T13:31:16;24.80;99.90
32698;DHT22;19087;51.062;3.754;2023-07-09T13:33:43;24.90;99.90
32698;DHT22;19087;51.062;3.754;2023-07-09T13:36:10;24.90;99.90
32698;DHT22;19087;51.062;3.754;2023-07-09T13:38:36;24.90;99.90
32698;DHT22;19087;51.062;3.754;2023-07-09T13:41:10;25.10;99.90
32698;DHT22;19087;51.062;3.754;2023-07-09T13:43:36;25.20;99.90
32698;DHT22;19087;51.062;3.754;2023-07-09T13:46:02;25.20;99.90
32698;DHT22;19087;51.062;3.754;2023-07-09T13:48:29;25.10;99.90
32698;DHT22;19087;51.062;3.754;2023-07-09T13:50:56;25.20;99.90
32698;DHT22;19087;51.062;3.754;2023-07-09T13:53:24;25.20;99.90
32698;DHT22;19087;51.062;3.754;2023-07-09T13:55:53;25.10;99.90
32698;DHT22;19087;51.062;3.754;2023-07-09T13:58:24;25.20;99.90
32698;DHT22;19087;51.062;3.754;2023-07-09T14:00:50;25.30;99.90
32698;DHT22;19087;51.062;3.754;2023-07-09T14:05:45;25.50;99.90
32698;DHT22;19087;51.062;3.754;2023-07-09T14:08:11;25.70;99.90
32698;DHT22;19087;51.062;3.754;2023-07-09T14:10:37;25.80;99.90
32698;DHT22;19087;51.062;3.754;2023-07-09T14:13:03;25.80;99.90
32698;DHT22;19087;51.062;3.754;2023-07-09T14:15:29;25.60;99.90
32698;DHT22;19087;51.062;3.754;2023-07-09T14:17:55;25.80;99.90
32698;DHT22;19087;51.062;3.754;2023-07-09T14:20:21;25.90;99.90
32698;DHT22;19087;51.062;3.754;2023-07-09T14:22:47;26.00;99.90
32698;DHT22;19087;51.062;3.754;2023-07-09T14:25:21;26.10;99.90
32698;DHT22;19087;51.062;3.754;2023-07-09T14:27:48;26.30;99.90
32698;DHT22;19087;51.062;3.754;2023-07-09T14:30:14;26.50;99.90
32698;DHT22;19087;51.062;3.754;2023-07-09T14:32:40;26.60;99.90
32698;DHT22;19087;51.062;3.754;2023-07-09T14:35:30;26.80;99.90
32698;DHT22;19087;51.062;3.754;2023-07-09T14:37:55;26.80;98.80
32698;DHT22;19087;51.062;3.754;2023-07-09T14:40:24;26.90;98.70
32698;DHT22;19087;51.062;3.754;2023-07-09T14:42:50;26.80;98.10
32698;DHT22;19087;51.062;3.754;2023-07-09T14:45:22;26.50;98.20
32698;DHT22;19087;51.062;3.754;2023-07-09T14:47:52;26.30;98.50
32698;DHT22;19087;51.062;3.754;2023-07-09T14:50:18;26.40;98.10
32698;DHT22;19087;51.062;3.754;2023-07-09T14:52:44;26.40;98.30
32698;DHT22;19087;51.062;3.754;2023-07-09T14:55:17;26.60;98.50
32698;DHT22;19087;51.062;3.754;2023-07-09T14:57:43;26.80;98.00
32698;DHT22;19087;51.062;3.754;2023-07-09T15:00:16;27.00;97.80
32698;DHT22;19087;51.062;3.754;2023-07-09T15:02:42;27.40;96.80
32698;DHT22;19087;51.062;3.754;2023-07-09T15:05:16;27.70;96.00
32698;DHT22;19087;51.062;3.754;2023-07-09T15:07:43;27.70;95.30
32698;DHT22;19087;51.062;3.754;2023-07-09T15:10:23;27.70;95.30
32698;DHT22;19087;51.062;3.754;2023-07-09T15:12:49;27.60;95.40
32698;DHT22;19087;51.062;3.754;2023-07-09T15:17:48;27.60;95.00
32698;DHT22;19087;51.062;3.754;2023-07-09T15:20:18;27.70;94.10
32698;DHT22;19087;51.062;3.754;2023-07-09T15:22:44;27.60;92.70
32698;DHT22;19087;51.062;3.754;2023-07-09T15:25:20;27.60;92.20
32698;DHT22;19087;51.062;3.754;2023-07-09T15:27:46;27.70;92.10
32698;DHT22;19087;51.062;3.754;2023-07-09T15:30:15;27.50;91.70
32698;DHT22;19087;51.062;3.754;2023-07-09T15:32:43;27.30;91.20
32698;DHT22;19087;51.062;3.754;2023-07-09T15:35:08;27.30;91.60
32698;DHT22;19087;51.062;3.754;2023-07-09T15:37:34;27.20;90.90
32698;DHT22;19087;51.062;3.754;2023-07-09T15:40:00;26.90;91.10
32698;DHT22;19087;51.062;3.754;2023-07-09T15:42:26;26.80;91.20
32698;DHT22;19087;51.062;3.754;2023-07-09T15:44:51;26.90;91.40
32698;DHT22;19087;51.062;3.754;2023-07-09T15:47:18;26.90;90.80
32698;DHT22;19087;51.062;3.754;2023-07-09T15:49:44;26.90;90.50
32698;DHT22;19087;51.062;3.754;2023-07-09T15:52:10;26.80;90.50
32698;DHT22;19087;51.062;3.754;2023-07-09T15:54:36;27.00;90.50
32698;DHT22;19087;51.062;3.754;2023-07-09T15:57:02;27.20;89.70
32698;DHT22;19087;51.062;3.754;2023-07-09T15:59:28;27.30;89.90
32698;DHT22;19087;51.062;3.754;2023-07-09T16:01:55;27.30;88.60
32698;DHT22;19087;51.062;3.754;2023-07-09T16:04:20;27.40;88.70
32698;DHT22;19087;51.062;3.754;2023-07-09T16:06:48;27.50;88.00